Time;durP1;ratioP1;P1;durP2;ratioP2;P2;SDS_P1;SDS_P2;PMS_P1;PMS_P2;Temp;Humidity;BMP_temperature;BMP_pressure;BME280_temperature;BME280_humidity;BME280_pressure;Samples;Min_cycle;Max_cycle;Signal;HPM_P1;HPM_P2
2024/02/29 00:01:35;;;;;;;35.73;20.30;;;;;;;6.46;68.86;96485.50;4989394;28;20678;-69
2024/02/29 00:04:01;;;;;;;31.80;20.40;;;;;;;6.48;68.48;96490.69;4989632;28;20192;-70
2024/02/29 00:06:26;;;;;;;36.17;22.23;;;;;;;6.43;68.66;96492.56;4988544;28;20196;-70
2024/02/29 00:08:52;;;;;;;35.67;25.07;;;;;;;6.53;68.27;96489.66;4987561;28;20556;-70
2024/02/29 00:11:17;;;;;;;29.53;21.83;;;;;;;6.39;68.70;96485.72;4986802;28;20644;-70
2024/02/29 00:13:42;;;;;;;29.70;20.30;;;;;;;6.40;68.58;96480.44;4986641;28;20243;-70
2024/02/29 00:16:08;;;;;;;33.43;21.17;;;;;;;6.24;69.11;96474.78;4986769;28;20283;-71
2024/02/29 00:18:33;;;;;;;30.40;19.80;;;;;;;6.39;68.34;96470.94;4969215;28;20208;-70
2024/02/29 00:20:59;;;;;;;32.17;21.00;;;;;;;6.39;68.26;96470.06;4987279;28;20184;-70
2024/02/29 00:23:24;;;;;;;35.63;22.10;;;;;;;6.33;68.64;96471.06;4986539;28;20679;-71
2024/02/29 00:25:49;;;;;;;37.93;21.63;;;;;;;6.37;68.49;96470.09;4986909;28;20295;-69
2024/02/29 00:28:15;;;;;;;33.60;23.83;;;;;;;6.32;68.53;96470.22;4986652;28;20505;-71
2024/02/29 00:30:40;;;;;;;30.27;21.37;;;;;;;6.44;68.27;96460.38;4986260;28;20632;-70
2024/02/29 00:33:06;;;;;;;35.37;20.90;;;;;;;6.25;68.69;96465.22;4986493;28;20197;-70
2024/02/29 00:35:31;;;;;;;36.40;22.40;;;;;;;6.35;68.36;96462.34;4986469;28;20284;-70
2024/02/29 00:37:57;;;;;;;31.90;20.90;;;;;;;6.17;68.80;96459.38;4986813;28;20589;-69
2024/02/29 00:40:23;;;;;;;32.33;19.97;;;;;;;6.11;68.82;96453.38;4986706;28;20181;-71
2024/02/29 00:42:49;;;;;;;35.80;21.70;;;;;;;6.22;68.54;96463.56;4986755;28;20440;-69
2024/02/29 00:45:15;;;;;;;36.87;21.00;;;;;;;6.18;68.84;96455.84;4987045;28;20266;-71
2024/02/29 00:47:40;;;;;;;36.87;22.40;;;;;;;6.29;68.75;96459.03;4986342;28;20503;-70
2024/02/29 00:50:07;;;;;;;31.60;21.20;;;;;;;6.25;68.59;96454.78;4985926;28;20184;-70
2024/02/29 00:52:32;;;;;;;34.53;21.27;;;;;;;6.36;68.25;96451.00;4986100;28;20621;-70
2024/02/29 00:54:58;;;;;;;37.23;20.97;;;;;;;6.29;68.34;96454.69;4968908;28;20420;-70
2024/02/29 00:57:23;;;;;;;33.10;21.57;;;;;;;6.39;67.99;96441.41;4980628;28;20191;-70
2024/02/29 00:59:49;;;;;;;36.67;21.40;;;;;;;6.29;68.33;96435.59;4990278;28;20188;-69
2024/02/29 01:02:14;;;;;;;35.80;20.27;;;;;;;6.32;68.40;96438.94;4988929;28;20202;-71
2024/02/29 01:04:39;;;;;;;39.63;21.37;;;;;;;6.26;68.38;96441.75;4989924;28;20251;-69
2024/02/29 01:07:05;;;;;;;41.03;21.30;;;;;;;6.29;68.10;96439.03;4992167;28;20193;-69
2024/02/29 01:09:30;;;;;;;32.13;20.10;;;;;;;6.20;67.98;96438.44;4990873;28;20619;-70
2024/02/29 01:11:56;;;;;;;37.23;20.47;;;;;;;6.28;68.17;96439.06;4990906;28;20553;-71
2024/02/29 01:14:21;;;;;;;39.93;21.00;;;;;;;6.00;69.10;96436.31;4989595;28;20173;-70
2024/02/29 01:16:48;;;;;;;35.23;21.40;;;;;;;6.00;68.80;96434.59;4987055;28;20175;-71
2024/02/29 01:19:13;;;;;;;33.90;21.57;;;;;;;5.94;69.35;96432.97;4985570;28;20252;-69
2024/02/29 01:21:40;;;;;;;34.90;21.50;;;;;;;6.10;68.88;96428.25;4985671;28;20562;-69
2024/02/29 01:24:06;;;;;;;32.07;19.20;;;;;;;6.11;68.72;96431.69;4985633;28;20207;-70
2024/02/29 01:26:33;;;;;;;32.53;21.00;;;;;;;6.21;69.00;96432.31;4985645;28;20530;-71
2024/02/29 01:28:58;;;;;;;30.77;18.93;;;;;;;6.30;68.72;96425.09;4985929;28;20196;-69
2024/02/29 01:31:24;;;;;;;36.40;20.60;;;;;;;6.35;68.55;96424.97;4985570;28;20439;-70
2024/02/29 01:33:49;;;;;;;28.30;18.90;;;;;;;6.40;68.57;96420.50;4985428;28;20735;-70
2024/02/29 01:36:14;;;;;;;35.47;22.37;;;;;;;6.45;67.72;96422.97;4985093;28;20188;-70
2024/02/29 01:38:40;;;;;;;29.93;18.77;;;;;;;6.41;68.53;96422.22;4967834;28;20173;-71
2024/02/29 01:41:05;;;;;;;31.10;21.17;;;;;;;6.53;67.84;96415.81;4985194;28;20181;-70
2024/02/29 01:43:31;;;;;;;35.40;20.90;;;;;;;6.37;68.73;96425.81;4985585;28;20282;-69
2024/02/29 01:46:27;;;;;;;33.23;20.10;;;;;;;6.38;68.79;96421.44;4985400;28;20172;-71
2024/02/29 01:48:53;;;;;;;33.67;20.30;;;;;;;6.41;68.84;96416.16;4973114;28;20343;-71
2024/02/29 01:51:20;;;;;;;31.07;21.40;;;;;;;6.41;69.18;96419.63;4985408;28;20523;-69
2024/02/29 01:53:46;;;;;;;37.33;21.20;;;;;;;6.49;69.21;96415.03;4985809;28;20428;-69
2024/02/29 01:56:12;;;;;;;38.00;23.00;;;;;;;6.48;69.19;96408.13;4985253;28;20412;-70
2024/02/29 01:58:39;;;;;;;34.63;22.17;;;;;;;6.60;68.89;96406.94;4985022;28;20242;-71
2024/02/29 02:01:04;;;;;;;31.80;21.30;;;;;;;6.49;69.78;96398.53;4984536;28;20503;-70
2024/02/29 02:03:30;;;;;;;36.90;22.87;;;;;;;6.29;70.02;96392.13;4984854;28;20554;-69
2024/02/29 02:05:55;;;;;;;33.90;21.57;;;;;;;6.41;70.34;96406.59;4985037;28;20180;-69
2024/02/29 02:08:23;;;;;;;36.83;23.30;;;;;;;6.44;70.77;96401.28;4985199;28;20640;-70
2024/02/29 02:10:49;;;;;;;36.90;22.80;;;;;;;6.41;71.01;96398.75;4988983;28;20204;-70
2024/02/29 02:13:14;;;;;;;44.63;24.03;;;;;;;6.44;71.07;96393.44;4990472;28;20432;-68
2024/02/29 02:15:40;;;;;;;44.80;24.77;;;;;;;6.36;71.53;96395.44;4990772;28;20184;-71
2024/02/29 02:18:06;;;;;;;37.73;23.67;;;;;;;6.55;71.05;96391.41;4990590;28;20177;-70
2024/02/29 02:20:32;;;;;;;33.37;24.07;;;;;;;6.39;70.62;96386.66;4990622;28;20470;-70
2024/02/29 02:22:57;;;;;;;36.83;24.30;;;;;;;6.47;71.32;96395.13;4990453;28;20667;-70
2024/02/29 02:25:22;;;;;;;38.50;23.90;;;;;;;6.04;72.40;96385.88;4991002;28;20447;-69
2024/02/29 02:27:48;;;;;;;38.27;22.83;;;;;;;6.14;72.23;96380.38;4990660;28;20354;-70
2024/02/29 02:30:13;;;;;;;41.10;23.53;;;;;;;5.98;73.08;96378.22;4989912;28;20180;-71
2024/02/29 02:32:40;;;;;;;35.70;24.00;;;;;;;6.03;73.09;96369.38;4989208;28;20223;-70
2024/02/29 02:35:06;;;;;;;38.80;23.60;;;;;;;6.39;72.03;96366.66;4988861;28;20181;-70
2024/02/29 02:37:33;;;;;;;43.13;24.80;;;;;;;6.44;71.99;96369.16;4988858;28;20447;-70
2024/02/29 02:39:59;;;;;;;37.27;24.73;;;;;;;6.43;71.09;96360.47;4989170;28;20423;-71
2024/02/29 02:42:24;;;;;;;42.17;25.60;;;;;;;6.41;71.55;96353.59;4989453;28;20443;-71
2024/02/29 02:44:50;;;;;;;40.10;23.70;;;;;;;6.41;71.82;96354.44;4991531;28;20234;-71
2024/02/29 02:47:16;;;;;;;38.63;23.97;;;;;;;6.41;71.60;96358.81;4991366;28;20251;-71
2024/02/29 02:49:41;;;;;;;43.73;26.70;;;;;;;6.47;71.32;96349.06;4991661;28;20213;-70
2024/02/29 02:52:08;;;;;;;37.90;22.87;;;;;;;6.35;72.38;96345.06;4991108;28;20554;-71
2024/02/29 02:54:33;;;;;;;38.07;25.00;;;;;;;6.24;72.96;96341.06;4989146;28;20272;-69
2024/02/29 02:56:59;;;;;;;40.10;24.87;;;;;;;6.24;73.22;96339.28;4988795;28;21266;-70
2024/02/29 02:59:26;;;;;;;46.47;26.77;;;;;;;6.34;72.55;96337.28;4963098;28;20187;-71
2024/02/29 03:01:52;;;;;;;50.60;28.40;;;;;;;6.51;71.91;96332.44;4988287;28;20447;-70
2024/02/29 03:04:17;;;;;;;39.93;23.10;;;;;;;6.32;72.00;96333.84;4988758;28;20420;-70
2024/02/29 03:06:43;;;;;;;35.63;24.13;;;;;;;5.83;74.08;96325.59;4989334;28;20209;-69
2024/02/29 03:09:08;;;;;;;40.97;24.83;;;;;;;6.17;73.19;96323.88;4989170;28;20173;-70
2024/02/29 03:11:34;;;;;;;41.57;23.57;;;;;;;6.00;72.93;96322.59;4988489;28;20205;-70
2024/02/29 03:14:00;;;;;;;44.43;24.90;;;;;;;5.62;74.07;96326.16;4987245;28;20246;-72
2024/02/29 03:16:26;;;;;;;40.40;24.90;;;;;;;5.55;74.73;96308.97;4980987;28;20169;-71
2024/02/29 03:18:52;;;;;;;38.13;23.20;;;;;;;5.58;73.63;96314.13;4988879;28;20878;-69
2024/02/29 03:21:17;;;;;;;39.70;25.37;;;;;;;5.67;74.02;96304.31;4988652;28;20452;-70
2024/02/29 03:23:43;;;;;;;40.70;23.43;;;;;;;5.69;73.77;96306.88;4970827;28;20192;-71
2024/02/29 03:26:08;;;;;;;38.23;24.30;;;;;;;5.96;73.15;96305.31;4988506;28;20204;-70
2024/02/29 03:28:34;;;;;;;37.60;23.20;;;;;;;6.04;72.85;96300.75;4988481;28;21018;-70
2024/02/29 03:31:00;;;;;;;40.87;23.03;;;;;;;6.07;72.59;96295.47;4987742;28;20204;-71
2024/02/29 03:33:25;;;;;;;35.17;21.10;;;;;;;5.99;73.12;96292.22;4988138;28;20637;-71
2024/02/29 03:35:51;;;;;;;41.83;25.00;;;;;;;5.88;73.21;96292.47;4987812;28;20434;-70
2024/02/29 03:38:17;;;;;;;41.07;23.10;;;;;;;6.09;72.75;96282.38;4988168;28;20177;-70
2024/02/29 03:40:43;;;;;;;41.03;25.50;;;;;;;6.08;72.64;96294.56;4988376;28;20185;-71
2024/02/29 03:43:08;;;;;;;40.90;23.43;;;;;;;6.11;72.72;96285.81;4988171;28;21005;-69
2024/02/29 03:45:34;;;;;;;37.90;24.37;;;;;;;5.94;73.52;96291.47;4988139;28;20235;-71
2024/02/29 03:47:59;;;;;;;37.33;22.73;;;;;;;5.91;73.76;96289.78;4987683;28;20969;-70
2024/02/29 03:50:26;;;;;;;38.70;22.03;;;;;;;5.78;73.82;96284.94;4987358;28;20183;-71
2024/02/29 03:52:51;;;;;;;42.53;23.47;;;;;;;5.88;73.83;96286.41;4987467;28;20204;-71
2024/02/29 03:55:17;;;;;;;35.30;24.20;;;;;;;6.02;73.07;96289.50;4987963;28;20416;-70
2024/02/29 03:57:42;;;;;;;36.63;24.60;;;;;;;5.91;73.63;96296.75;4987492;28;20549;-70
2024/02/29 04:00:10;;;;;;;36.27;22.73;;;;;;;6.11;72.85;96285.81;4987702;28;20173;-70
2024/02/29 04:02:37;;;;;;;37.87;24.13;;;;;;;6.09;72.61;96291.03;4986542;28;20207;-69
2024/02/29 04:05:10;;;;;;;42.27;25.17;;;;;;;6.01;72.92;96287.81;4988264;28;20412;-70
2024/02/29 04:07:40;;;;;;;35.17;22.77;;;;;;;5.92;72.96;96293.25;4988145;28;20462;-70
2024/02/29 04:10:06;;;;;;;36.33;24.00;;;;;;;5.89;73.23;96288.97;4988102;28;20487;-70
2024/02/29 04:12:32;;;;;;;35.60;22.57;;;;;;;5.80;73.75;96277.94;4987877;28;20520;-68
2024/02/29 04:14:57;;;;;;;38.60;25.07;;;;;;;5.89;73.69;96277.72;4988545;28;20213;-70
2024/02/29 04:17:25;;;;;;;44.30;24.70;;;;;;;5.91;74.07;96275.91;4990197;28;20180;-69
2024/02/29 04:19:50;;;;;;;43.87;26.47;;;;;;;5.65;74.38;96272.25;4971608;28;20189;-71
2024/02/29 04:22:16;;;;;;;45.80;27.47;;;;;;;5.89;74.33;96269.91;4990068;28;20450;-69
2024/02/29 04:24:41;;;;;;;68.73;34.80;;;;;;;6.08;73.59;96255.47;4988844;28;20208;-70
2024/02/29 04:27:07;;;;;;;49.57;28.83;;;;;;;6.11;73.61;96254.53;4990698;28;20591;-71
2024/02/29 04:29:32;;;;;;;46.67;25.90;;;;;;;6.07;73.34;96265.94;4989397;28;20177;-70
2024/02/29 04:31:58;;;;;;;48.20;27.83;;;;;;;5.77;74.45;96265.03;4992210;28;20207;-70
2024/02/29 04:34:24;;;;;;;49.60;28.87;;;;;;;5.66;75.31;96263.53;4991733;28;20172;-70
2024/02/29 04:36:49;;;;;;;55.23;26.17;;;;;;;5.75;74.71;96262.44;4990005;28;20195;-69
2024/02/29 04:39:15;;;;;;;55.13;29.00;;;;;;;5.67;75.03;96254.84;4988848;28;20180;-69
2024/02/29 04:41:40;;;;;;;48.90;27.23;;;;;;;5.74;74.81;96263.38;4971342;28;20197;-69
2024/02/29 04:44:06;;;;;;;47.77;27.43;;;;;;;5.71;74.95;96259.06;4988858;28;20188;-71
2024/02/29 04:46:31;;;;;;;44.13;26.73;;;;;;;5.66;75.12;96266.16;4987733;28;20262;-71
2024/02/29 04:48:57;;;;;;;41.30;27.40;;;;;;;5.68;75.14;96268.72;4987745;28;20276;-70
2024/02/29 04:51:23;;;;;;;47.37;27.30;;;;;;;5.68;75.13;96268.72;4987830;28;20188;-70
2024/02/29 04:53:48;;;;;;;50.87;26.13;;;;;;;5.30;76.10;96274.03;4969612;28;20250;-68
2024/02/29 04:56:14;;;;;;;46.17;26.20;;;;;;;5.43;75.72;96264.19;4987402;28;20498;-69
2024/02/29 04:58:39;;;;;;;48.63;28.70;;;;;;;5.38;75.99;96265.16;4987038;28;20181;-71
2024/02/29 05:01:04;;;;;;;43.87;27.57;;;;;;;5.60;75.71;96255.03;4970003;28;20782;-69
2024/02/29 05:03:30;;;;;;;43.97;27.00;;;;;;;5.41;75.46;96271.16;4991256;28;20179;-69
2024/02/29 05:05:55;;;;;;;42.87;25.87;;;;;;;5.39;76.12;96264.28;4974264;28;20188;-69
2024/02/29 05:08:22;;;;;;;43.63;26.47;;;;;;;5.66;75.21;96265.31;4987803;28;20223;-70
2024/02/29 05:10:47;;;;;;;43.50;26.37;;;;;;;5.55;75.22;96265.59;4987406;28;20193;-70
2024/02/29 05:13:13;;;;;;;50.53;26.83;;;;;;;5.60;75.31;96261.13;4986914;28;20444;-70
2024/02/29 05:15:39;;;;;;;46.97;25.30;;;;;;;5.65;74.98;96264.47;4987699;28;20226;-70
2024/02/29 05:18:06;;;;;;;50.73;27.60;;;;;;;5.60;74.84;96257.66;4987870;28;20255;-70
2024/02/29 05:20:31;;;;;;;40.10;24.80;;;;;;;5.68;75.03;96253.09;4989386;28;20185;-70
2024/02/29 05:22:57;;;;;;;47.00;27.60;;;;;;;5.43;75.61;96250.28;4989497;28;20514;-71
2024/02/29 05:25:23;;;;;;;50.67;28.20;;;;;;;5.72;74.72;96252.97;4988928;28;20177;-70
2024/02/29 05:27:49;;;;;;;47.43;29.57;;;;;;;5.12;76.64;96266.66;4988457;28;20391;-70
2024/02/29 05:30:14;;;;;;;45.37;26.37;;;;;;;5.48;75.49;96261.41;4987034;28;20420;-69
2024/02/29 05:32:40;;;;;;;50.70;27.30;;;;;;;5.00;77.27;96259.16;4987006;28;20196;-70
2024/02/29 05:35:07;;;;;;;46.20;27.57;;;;;;;5.34;76.73;96253.13;4969487;28;20177;-70
2024/02/29 05:37:33;;;;;;;42.37;27.10;;;;;;;5.35;76.72;96257.44;4965618;28;20424;-69
2024/02/29 05:39:58;;;;;;;45.73;26.40;;;;;;;5.43;76.25;96248.56;4982370;28;20470;-69
2024/02/29 05:42:28;;;;;;;46.33;24.20;;;;;;;5.17;76.57;96254.41;4986144;28;20443;-71
2024/02/29 05:44:54;;;;;;;51.07;27.50;;;;;;;4.97;78.33;96246.25;4988761;28;20195;-69
2024/02/29 05:47:20;;;;;;;44.07;24.30;;;;;;;5.42;76.43;96248.59;4990733;28;20472;-70
2024/02/29 05:49:45;;;;;;;48.33;27.70;;;;;;;5.47;75.94;96238.91;4993563;28;20177;-69
2024/02/29 05:52:11;;;;;;;55.77;26.83;;;;;;;5.59;75.60;96238.56;4997786;28;20284;-69
2024/02/29 05:54:36;;;;;;;50.63;25.50;;;;;;;5.37;76.32;96237.44;5001267;28;20195;-70
2024/02/29 05:57:02;;;;;;;47.20;27.47;;;;;;;5.34;76.00;96235.78;5000849;28;20184;-71
2024/02/29 05:59:28;;;;;;;48.80;26.63;;;;;;;5.63;75.25;96239.38;4988393;28;20195;-71
2024/02/29 06:01:53;;;;;;;61.93;30.57;;;;;;;5.57;75.30;96240.34;4991538;28;20193;-71
2024/02/29 06:04:19;;;;;;;49.33;27.60;;;;;;;5.88;74.97;96231.72;4990685;28;20189;-72
2024/02/29 06:06:44;;;;;;;45.37;28.10;;;;;;;5.56;75.23;96237.81;4997528;28;20200;-69
2024/02/29 06:09:14;;;;;;;52.87;28.73;;;;;;;5.21;77.49;96242.19;4978072;28;20182;-70
2024/02/29 06:11:42;;;;;;;44.07;27.03;;;;;;;5.42;76.14;96238.19;5003570;28;20203;-70
2024/02/29 06:14:09;;;;;;;48.83;28.60;;;;;;;5.46;76.37;96235.47;5004560;28;20412;-70
2024/02/29 06:16:34;;;;;;;49.77;30.17;;;;;;;5.34;76.57;96232.31;4974857;28;21387;-70
2024/02/29 06:19:00;;;;;;;48.27;27.87;;;;;;;5.33;76.81;96238.41;4991345;28;20432;-71
2024/02/29 06:21:25;;;;;;;48.33;28.47;;;;;;;5.39;76.66;96235.66;4990025;28;20197;-70
2024/02/29 06:23:50;;;;;;;50.80;29.00;;;;;;;4.76;78.73;96238.06;4989732;28;20243;-69
2024/02/29 06:26:16;;;;;;;52.90;28.43;;;;;;;5.42;77.41;96233.81;4989847;28;20646;-71
2024/02/29 06:28:41;;;;;;;65.90;31.00;;;;;;;5.16;77.56;96239.69;4989525;28;20199;-70
2024/02/29 06:31:08;;;;;;;51.93;27.47;;;;;;;5.19;77.88;96241.38;4989344;28;20181;-71
2024/02/29 06:33:34;;;;;;;53.97;28.57;;;;;;;5.25;77.68;96228.22;4988681;28;20177;-70
2024/02/29 06:36:01;;;;;;;59.60;28.87;;;;;;;5.35;77.04;96234.03;4988920;28;20450;-71
2024/02/29 06:38:26;;;;;;;54.47;27.90;;;;;;;5.23;78.22;96238.66;4987373;28;20570;-70
2024/02/29 06:40:51;;;;;;;68.60;31.20;;;;;;;5.09;78.05;96230.34;4987483;28;20420;-71
2024/02/29 06:43:17;;;;;;;55.10;30.47;;;;;;;5.19;78.38;96230.97;4970121;28;20181;-73
2024/02/29 06:45:47;;;;;;;60.53;29.93;;;;;;;5.80;76.48;96223.28;4989042;28;20184;-71
2024/02/29 06:48:15;;;;;;;47.23;27.13;;;;;;;5.49;77.59;96230.16;4988916;28;20208;-72
2024/02/29 06:50:40;;;;;;;53.10;26.60;;;;;;;4.64;79.04;96226.22;4990363;28;20545;-71
2024/02/29 06:53:06;;;;;;;55.07;27.20;;;;;;;4.29;82.53;96233.94;4989988;28;20464;-72
2024/02/29 06:55:31;;;;;;;68.63;26.63;;;;;;;5.34;80.41;96227.09;4989302;28;20180;-69
2024/02/29 06:57:57;;;;;;;56.73;27.70;;;;;;;4.94;78.81;96234.19;4989507;28;20185;-69
2024/02/29 07:00:24;;;;;;;53.57;26.20;;;;;;;4.74;79.89;96236.41;4994266;28;20654;-69
2024/02/29 07:02:50;;;;;;;47.67;25.70;;;;;;;5.05;78.33;96221.75;4992545;28;20209;-68
2024/02/29 07:05:18;;;;;;;47.63;26.53;;;;;;;5.01;78.74;96224.50;4985904;28;22252;-67
2024/02/29 07:07:44;;;;;;;51.00;26.83;;;;;;;4.84;79.53;96220.56;4990013;28;20216;-69
2024/02/29 07:10:11;;;;;;;46.20;26.77;;;;;;;5.17;78.10;96212.78;4989063;28;20432;-68
2024/02/29 07:12:36;;;;;;;50.97;26.83;;;;;;;5.15;77.16;96211.13;4989149;28;20954;-68
2024/02/29 07:15:02;;;;;;;45.77;26.40;;;;;;;4.87;78.91;96217.88;4990792;28;20444;-70
2024/02/29 07:17:29;;;;;;;77.50;29.50;;;;;;;4.18;81.32;96219.47;4993394;28;20542;-69
2024/02/29 07:19:54;;;;;;;61.17;26.67;;;;;;;4.62;79.79;96219.34;4991429;28;21278;-69
2024/02/29 07:22:20;;;;;;;46.50;27.40;;;;;;;4.71;80.71;96206.13;4991128;28;20527;-68
2024/02/29 07:24:45;;;;;;;61.13;28.10;;;;;;;4.34;81.69;96212.16;4990065;28;20187;-68
2024/02/29 07:27:11;;;;;;;49.60;26.67;;;;;;;4.10;82.29;96203.19;4989880;28;20204;-68
2024/02/29 07:29:36;;;;;;;42.03;23.90;;;;;;;4.41;81.13;96205.94;4990221;28;20283;-69
2024/02/29 07:32:01;;;;;;;52.07;26.43;;;;;;;4.30;82.77;96201.88;4984091;28;20212;-68
2024/02/29 07:34:27;;;;;;;71.57;27.97;;;;;;;4.36;80.45;96193.97;4987495;28;20979;-69
2024/02/29 07:36:52;;;;;;;43.67;25.20;;;;;;;4.69;81.41;96189.72;4949625;28;1127593;-69
2024/02/29 07:39:18;;;;;;;50.90;29.10;;;;;;;4.81;80.09;96189.41;4988125;28;20185;-69
2024/02/29 07:41:43;;;;;;;50.03;27.20;;;;;;;4.74;79.87;96189.59;4963092;28;20291;-68
2024/02/29 07:44:08;;;;;;;49.13;25.70;;;;;;;4.45;80.95;96192.00;4990912;28;20189;-69
2024/02/29 07:46:35;;;;;;;59.17;27.20;;;;;;;4.55;81.07;96182.25;4991224;28;20365;-68
2024/02/29 07:49:00;;;;;;;49.10;27.20;;;;;;;4.41;81.96;96190.34;4973983;28;20267;-68
2024/02/29 07:51:26;;;;;;;53.10;28.97;;;;;;;4.87;80.19;96181.47;4995092;28;20513;-68
2024/02/29 07:53:51;;;;;;;51.07;27.40;;;;;;;4.59;81.43;96183.88;4972192;28;20174;-71
2024/02/29 07:56:17;;;;;;;54.33;28.07;;;;;;;4.56;80.56;96188.28;4978274;28;20169;-68
2024/02/29 07:58:43;;;;;;;50.83;28.90;;;;;;;4.33;81.77;96184.50;4995886;28;20181;-69
2024/02/29 08:01:08;;;;;;;53.57;28.53;;;;;;;4.41;81.32;96179.97;4993294;28;20447;-68
2024/02/29 08:03:34;;;;;;;61.47;28.90;;;;;;;4.29;82.22;96185.44;4987109;28;20204;-68
2024/02/29 08:05:59;;;;;;;67.73;30.47;;;;;;;4.32;81.70;96181.94;4983789;28;20270;-68
2024/02/29 08:08:25;;;;;;;52.80;28.37;;;;;;;4.28;82.59;96181.16;4986704;28;20192;-67
2024/02/29 08:10:50;;;;;;;57.07;27.90;;;;;;;4.79;80.54;96172.16;4988704;28;20235;-68
2024/02/29 08:13:15;;;;;;;43.00;27.37;;;;;;;4.80;80.04;96161.72;4987009;28;20203;-67
2024/02/29 08:15:41;;;;;;;54.73;27.97;;;;;;;4.59;79.82;96164.84;4988750;28;20232;-68
2024/02/29 08:18:07;;;;;;;55.93;26.83;;;;;;;4.68;80.40;96169.81;4989152;28;20190;-69
2024/02/29 08:20:33;;;;;;;53.70;28.30;;;;;;;4.70;80.08;96161.97;4973525;28;20199;-67
2024/02/29 08:22:58;;;;;;;45.00;25.97;;;;;;;4.98;78.46;96162.97;4990128;28;20436;-68
2024/02/29 08:25:26;;;;;;;48.50;27.57;;;;;;;4.76;79.45;96161.84;4990810;28;20181;-66
2024/02/29 08:27:52;;;;;;;52.40;32.90;;;;;;;4.95;79.40;96154.41;4994193;28;20208;-67
2024/02/29 08:30:18;;;;;;;54.90;29.67;;;;;;;4.92;79.30;96144.97;4993782;28;20921;-66
2024/02/29 08:32:44;;;;;;;50.53;28.67;;;;;;;4.90;80.59;96143.28;4990873;28;20467;-65
2024/02/29 08:35:10;;;;;;;56.07;29.20;;;;;;;4.80;79.38;96150.47;4989640;28;20255;-68
2024/02/29 08:37:35;;;;;;;59.00;28.33;;;;;;;4.75;80.58;96144.50;4989104;28;20264;-67
2024/02/29 08:40:04;;;;;;;54.10;27.57;;;;;;;5.11;78.99;96147.94;4987006;28;20467;-68
2024/02/29 08:42:30;;;;;;;54.60;31.53;;;;;;;5.03;79.80;96142.94;4985679;28;20720;-68
2024/02/29 08:44:56;;;;;;;53.97;28.20;;;;;;;4.93;79.63;96143.19;4989231;28;20483;-67
2024/02/29 08:47:21;;;;;;;56.47;28.80;;;;;;;5.01;79.08;96139.53;4966097;28;20468;-68
2024/02/29 08:49:47;;;;;;;49.63;27.90;;;;;;;5.00;79.93;96130.00;4988487;28;20694;-67
2024/02/29 08:52:12;;;;;;;57.07;28.30;;;;;;;5.27;78.07;96128.41;4987762;28;20303;-66
2024/02/29 08:54:37;;;;;;;62.60;28.27;;;;;;;5.40;77.11;96130.66;4986556;28;20199;-67
2024/02/29 08:57:04;;;;;;;66.03;29.67;;;;;;;5.58;76.10;96130.16;4982892;28;20660;-67
2024/02/29 08:59:30;;;;;;;43.73;26.53;;;;;;;5.52;76.16;96125.13;4989606;28;20188;-67
2024/02/29 09:01:56;;;;;;;48.23;26.90;;;;;;;5.68;75.93;96129.00;4988260;28;20947;-66
2024/02/29 09:04:22;;;;;;;46.70;27.53;;;;;;;5.36;77.34;96122.09;4988737;28;20219;-67
2024/02/29 09:06:47;;;;;;;39.83;25.83;;;;;;;5.79;75.60;96122.59;4988280;28;20515;-67
2024/02/29 09:09:13;;;;;;;49.17;26.20;;;;;;;5.58;75.81;96116.31;4988821;28;20180;-68
2024/02/29 09:11:38;;;;;;;42.73;23.10;;;;;;;5.66;75.49;96117.75;4986262;28;20209;-67
2024/02/29 09:14:04;;;;;;;41.97;24.20;;;;;;;5.96;74.36;96104.78;4989121;28;20192;-67
2024/02/29 09:16:29;;;;;;;43.50;23.87;;;;;;;6.03;74.29;96108.03;4977631;28;20177;-69
2024/02/29 09:18:56;;;;;;;45.37;24.87;;;;;;;6.06;74.09;96098.38;4984676;28;20621;-67
2024/02/29 09:21:21;;;;;;;40.13;23.37;;;;;;;5.99;74.64;96102.06;4989783;28;20208;-68
2024/02/29 09:23:49;;;;;;;39.47;24.47;;;;;;;6.31;73.47;96095.84;4988061;28;20514;-69
2024/02/29 09:26:18;;;;;;;43.27;27.80;;;;;;;6.52;72.18;96088.22;4988368;28;20199;-69
2024/02/29 09:28:44;;;;;;;40.60;25.50;;;;;;;6.56;72.12;96095.91;4987949;28;20844;-67
2024/02/29 09:31:13;;;;;;;50.60;27.17;;;;;;;6.53;72.33;96089.94;4982579;28;20437;-68
2024/02/29 09:33:39;;;;;;;46.07;25.20;;;;;;;5.64;75.82;96095.28;4987123;28;20488;-68
2024/02/29 09:36:07;;;;;;;42.93;25.57;;;;;;;6.04;74.60;96099.31;4987680;28;20555;-67
2024/02/29 09:38:33;;;;;;;43.57;24.27;;;;;;;6.27;73.54;96096.00;4988163;28;20185;-67
2024/02/29 09:40:58;;;;;;;43.40;27.20;;;;;;;5.92;74.89;96090.09;4987377;28;20427;-67
2024/02/29 09:43:24;;;;;;;40.20;24.17;;;;;;;5.90;75.13;96092.75;4988090;28;20196;-68
2024/02/29 09:45:51;;;;;;;44.83;26.63;;;;;;;5.87;75.57;96082.44;4982620;28;20178;-68
2024/02/29 09:48:17;;;;;;;43.83;27.83;;;;;;;6.29;73.91;96073.34;4986196;28;20264;-69
2024/02/29 09:50:43;;;;;;;42.50;24.07;;;;;;;6.75;72.58;96069.22;4987086;28;20416;-68
2024/02/29 09:53:09;;;;;;;47.60;26.97;;;;;;;6.99;70.86;96067.50;4985523;28;20208;-68
2024/02/29 09:55:35;;;;;;;42.97;25.93;;;;;;;6.30;72.76;96059.41;4986177;28;20235;-68
2024/02/29 09:58:01;;;;;;;43.67;25.13;;;;;;;6.38;73.79;96067.84;4986278;28;21271;-67
2024/02/29 10:00:27;;;;;;;41.00;24.30;;;;;;;6.87;72.40;96060.97;4986730;28;20227;-68
2024/02/29 10:02:52;;;;;;;46.80;27.17;;;;;;;6.86;72.38;96061.88;4981188;28;20464;-68
2024/02/29 10:05:19;;;;;;;48.93;27.40;;;;;;;6.62;72.93;96067.94;4985415;28;20189;-67
2024/02/29 10:07:48;;;;;;;41.10;23.60;;;;;;;6.04;75.21;96063.69;4988393;28;20200;-68
2024/02/29 10:10:15;;;;;;;46.20;26.60;;;;;;;5.92;75.81;96064.06;4986311;28;20420;-68
2024/02/29 10:12:43;;;;;;;50.73;28.60;;;;;;;6.76;73.13;96053.53;4989631;28;20440;-68
2024/02/29 10:15:10;;;;;;;50.10;28.43;;;;;;;7.03;71.62;96048.25;4986629;28;20420;-68
2024/02/29 10:17:39;;;;;;;41.60;24.93;;;;;;;7.22;71.10;96046.66;4984703;28;20446;-69
2024/02/29 10:20:09;;;;;;;41.30;25.97;;;;;;;7.06;71.53;96040.28;4986350;28;20433;-68
2024/02/29 10:22:35;;;;;;;48.17;27.97;;;;;;;7.20;70.46;96032.84;4985093;28;20509;-67
2024/02/29 10:25:02;;;;;;;55.13;31.50;;;;;;;6.96;71.60;96034.56;4987476;28;20463;-67
2024/02/29 10:27:29;;;;;;;39.87;25.33;;;;;;;7.07;71.77;96035.94;4984615;28;20471;-66
2024/02/29 10:29:58;;;;;;;44.13;28.50;;;;;;;7.12;71.33;96042.69;4983385;28;20428;-68
2024/02/29 10:32:23;;;;;;;41.13;25.00;;;;;;;7.26;71.05;96034.38;4991340;28;20772;-66
2024/02/29 10:34:49;;;;;;;48.50;28.67;;;;;;;7.15;70.51;96028.69;4990085;28;20444;-68
2024/02/29 10:37:14;;;;;;;38.83;27.30;;;;;;;7.53;69.78;96023.78;4990259;28;20268;-68
2024/02/29 10:39:40;;;;;;;41.80;25.50;;;;;;;7.81;67.94;96010.53;4992617;28;20243;-68
2024/02/29 10:42:08;;;;;;;38.80;27.23;;;;;;;8.31;66.77;95999.78;4992103;28;20201;-66
2024/02/29 10:44:35;;;;;;;42.83;26.40;;;;;;;8.55;66.03;96000.59;4992956;28;20200;-67
2024/02/29 10:47:06;;;;;;;60.50;27.07;;;;;;;8.76;65.06;95998.78;4993894;28;20459;-69
2024/02/29 10:49:54;;;;;;;54.60;30.20;;;;;;;9.45;63.89;95990.50;4991916;28;20463;-70
2024/02/29 10:52:23;;;;;;;37.27;24.87;;;;;;;9.54;62.08;95983.97;4993334;28;20491;-67
2024/02/29 10:54:55;;;;;;;38.33;25.10;;;;;;;9.33;63.54;95985.84;4976813;28;20474;-68
2024/02/29 10:57:27;;;;;;;41.47;25.03;;;;;;;9.74;62.25;95969.97;4995174;28;20422;-67
2024/02/29 11:00:00;;;;;;;34.60;23.63;;;;;;;9.65;61.91;95978.25;4995686;28;20420;-69
2024/02/29 11:02:26;;;;;;;34.97;23.90;;;;;;;9.93;61.14;95968.16;4996721;28;20432;-69
2024/02/29 11:04:53;;;;;;;45.57;26.47;;;;;;;10.58;59.44;95957.09;4996725;28;20447;-68
2024/02/29 11:07:19;;;;;;;40.17;24.70;;;;;;;10.14;58.93;95957.56;4993950;28;20476;-69
2024/02/29 11:09:45;;;;;;;35.07;23.20;;;;;;;9.89;60.30;95958.72;4993599;28;20435;-69
2024/02/29 11:12:13;;;;;;;35.80;23.03;;;;;;;9.46;62.02;95952.91;4991770;28;20523;-68
2024/02/29 11:14:42;;;;;;;32.30;23.33;;;;;;;9.74;61.19;95952.47;4990119;28;20476;-66
2024/02/29 11:17:08;;;;;;;38.80;22.10;;;;;;;9.92;61.09;95950.72;4989744;28;20510;-68
2024/02/29 11:19:34;;;;;;;32.50;21.87;;;;;;;9.11;62.87;95939.66;4991492;28;20412;-68